sensor_id;sensor_type;location;lat;lon;timestamp;pressure;altitude;pressure_sealevel;temperature;humidity
8703;BME280;9002;42.708;23.186;2023-07-30T00:01:28;94811.25;;;25.39;48.54
8703;BME280;9002;42.708;23.186;2023-07-30T00:03:54;94809.03;;;25.46;48.74
8703;BME280;9002;42.708;23.186;2023-07-30T00:06:21;94797.06;;;25.53;47.98
8703;BME280;9002;42.708;23.186;2023-07-30T00:08:48;94811.66;;;25.51;47.55
8703;BME280;9002;42.708;23.186;2023-07-30T00:11:14;94815.88;;;25.52;47.71
8703;BME280;9002;42.708;23.186;2023-07-30T00:13:43;94814.22;;;25.61;47.50
8703;BME280;9002;42.708;23.186;2023-07-30T00:16:09;94811.94;;;25.49;47.37
8703;BME280;9002;42.708;23.186;2023-07-30T00:18:36;94787.38;;;25.05;48.58
8703;BME280;9002;42.708;23.186;2023-07-30T00:21:03;94801.38;;;25.10;48.92
8703;BME280;9002;42.708;23.186;2023-07-30T00:23:30;94813.47;;;25.21;48.15
8703;BME280;9002;42.708;23.186;2023-07-30T00:25:56;94807.03;;;25.32;47.99
8703;BME280;9002;42.708;23.186;2023-07-30T00:28:23;94797.13;;;25.43;47.83
8703;BME280;9002;42.708;23.186;2023-07-30T00:30:51;94793.41;;;25.44;47.44
8703;BME280;9002;42.708;23.186;2023-07-30T00:33:18;94802.81;;;25.31;48.01
8703;BME280;9002;42.708;23.186;2023-07-30T00:35:44;94797.63;;;25.16;48.39
8703;BME280;9002;42.708;23.186;2023-07-30T00:38:11;94795.94;;;25.30;48.12
8703;BME280;9002;42.708;23.186;2023-07-30T00:40:40;94788.91;;;25.45;47.62
8703;BME280;9002;42.708;23.186;2023-07-30T00:43:07;94794.94;;;25.21;48.63
8703;BME280;9002;42.708;23.186;2023-07-30T00:45:34;94799.06;;;24.98;48.79
8703;BME280;9002;42.708;23.186;2023-07-30T00:48:03;94801.19;;;24.91;49.25
8703;BME280;9002;42.708;23.186;2023-07-30T00:50:30;94796.28;;;25.19;48.58
8703;BME280;9002;42.708;23.186;2023-07-30T00:52:57;94799.03;;;25.04;49.52
8703;BME280;9002;42.708;23.186;2023-07-30T00:55:24;94808.94;;;24.83;50.03
8703;BME280;9002;42.708;23.186;2023-07-30T00:57:51;94794.34;;;24.85;49.49
8703;BME280;9002;42.708;23.186;2023-07-30T01:00:18;94795.88;;;24.91;49.16
8703;BME280;9002;42.708;23.186;2023-07-30T01:02:45;94793.38;;;25.15;48.84
8703;BME280;9002;42.708;23.186;2023-07-30T01:05:13;94797.75;;;24.96;49.75
8703;BME280;9002;42.708;23.186;2023-07-30T01:07:39;94795.13;;;24.86;49.66
8703;BME280;9002;42.708;23.186;2023-07-30T01:10:07;94799.13;;;24.83;49.47
8703;BME280;9002;42.708;23.186;2023-07-30T01:12:34;94768.53;;;24.62;49.80
8703;BME280;9002;42.708;23.186;2023-07-30T01:15:07;94802.47;;;24.50;50.25
8703;BME280;9002;42.708;23.186;2023-07-30T01:17:35;94804.34;;;24.44;50.79
8703;BME280;9002;42.708;23.186;2023-07-30T01:20:03;94809.34;;;24.51;50.83
8703;BME280;9002;42.708;23.186;2023-07-30T01:22:31;94814.47;;;24.12;51.57
8703;BME280;9002;42.708;23.186;2023-07-30T01:24:58;94808.13;;;24.18;51.51
8703;BME280;9002;42.708;23.186;2023-07-30T01:27:26;94805.44;;;24.33;51.10
8703;BME280;9002;42.708;23.186;2023-07-30T01:29:59;94792.75;;;24.30;51.24
8703;BME280;9002;42.708;23.186;2023-07-30T01:32:28;94810.66;;;24.53;50.64
8703;BME280;9002;42.708;23.186;2023-07-30T01:34:57;94805.31;;;24.63;50.63
8703;BME280;9002;42.708;23.186;2023-07-30T01:37:25;94800.44;;;24.26;51.18
8703;BME280;9002;42.708;23.186;2023-07-30T01:39:54;94803.91;;;24.12;51.81
8703;BME280;9002;42.708;23.186;2023-07-30T01:42:21;94813.19;;;24.04;52.25
8703;BME280;9002;42.708;23.186;2023-07-30T01:44:54;94810.81;;;23.97;52.48
8703;BME280;9002;42.708;23.186;2023-07-30T01:47:20;94800.75;;;23.99;52.59
8703;BME280;9002;42.708;23.186;2023-07-30T01:49:47;94807.41;;;23.82;52.84
8703;BME280;9002;42.708;23.186;2023-07-30T01:52:14;94809.75;;;23.88;52.73
8703;BME280;9002;42.708;23.186;2023-07-30T01:54:41;94812.47;;;23.68;52.88
8703;BME280;9002;42.708;23.186;2023-07-30T01:57:09;94813.75;;;23.81;52.84
8703;BME280;9002;42.708;23.186;2023-07-30T01:59:38;94808.47;;;23.70;52.89
8703;BME280;9002;42.708;23.186;2023-07-30T02:02:04;94814.50;;;23.91;52.46
8703;BME280;9002;42.708;23.186;2023-07-30T02:04:32;94811.09;;;23.86;52.84
8703;BME280;9002;42.708;23.186;2023-07-30T02:06:59;94812.72;;;23.61;53.09
8703;BME280;9002;42.708;23.186;2023-07-30T02:09:26;94810.84;;;23.42;53.91
8703;BME280;9002;42.708;23.186;2023-07-30T02:11:52;94822.47;;;23.51;53.66
8703;BME280;9002;42.708;23.186;2023-07-30T02:14:20;94816.09;;;23.16;54.02
8703;BME280;9002;42.708;23.186;2023-07-30T02:16:47;94822.16;;;23.12;54.53
8703;BME280;9002;42.708;23.186;2023-07-30T02:19:14;94817.94;;;23.21;54.25
8703;BME280;9002;42.708;23.186;2023-07-30T02:21:40;94822.97;;;23.22;53.98
8703;BME280;9002;42.708;23.186;2023-07-30T02:24:08;94832.47;;;23.23;53.86
8703;BME280;9002;42.708;23.186;2023-07-30T02:26:36;94822.72;;;23.44;53.48
8703;BME280;9002;42.708;23.186;2023-07-30T02:29:03;94829.56;;;23.15;54.24
8703;BME280;9002;42.708;23.186;2023-07-30T02:31:31;94829.84;;;23.28;53.91
8703;BME280;9002;42.708;23.186;2023-07-30T02:34:00;94828.78;;;23.19;54.30
8703;BME280;9002;42.708;23.186;2023-07-30T02:36:26;94831.91;;;22.91;54.78
8703;BME280;9002;42.708;23.186;2023-07-30T02:38:53;94829.78;;;22.93;54.80
8703;BME280;9002;42.708;23.186;2023-07-30T02:41:20;94835.63;;;23.00;54.81
8703;BME280;9002;42.708;23.186;2023-07-30T02:43:46;94841.72;;;23.21;53.99
8703;BME280;9002;42.708;23.186;2023-07-30T02:46:13;94842.75;;;23.15;53.94
8703;BME280;9002;42.708;23.186;2023-07-30T02:48:41;94835.09;;;23.13;54.38
8703;BME280;9002;42.708;23.186;2023-07-30T02:51:08;94837.72;;;23.13;54.07
8703;BME280;9002;42.708;23.186;2023-07-30T02:53:34;94827.97;;;23.14;53.92
8703;BME280;9002;42.708;23.186;2023-07-30T02:56:01;94834.31;;;23.28;53.65
8703;BME280;9002;42.708;23.186;2023-07-30T02:58:28;94827.19;;;23.13;54.29
8703;BME280;9002;42.708;23.186;2023-07-30T03:00:55;94834.59;;;23.06;54.69
8703;BME280;9002;42.708;23.186;2023-07-30T03:03:21;94825.00;;;22.80;55.25
8703;BME280;9002;42.708;23.186;2023-07-30T03:05:49;94837.22;;;23.01;55.21
8703;BME280;9002;42.708;23.186;2023-07-30T03:08:16;94845.41;;;23.10;54.99
8703;BME280;9002;42.708;23.186;2023-07-30T03:10:43;94823.06;;;22.60;55.78
8703;BME280;9002;42.708;23.186;2023-07-30T03:13:10;94850.94;;;23.08;55.31
8703;BME280;9002;42.708;23.186;2023-07-30T03:15:36;94844.06;;;23.17;54.71
8703;BME280;9002;42.708;23.186;2023-07-30T03:18:03;94835.94;;;23.39;53.93
8703;BME280;9002;42.708;23.186;2023-07-30T03:20:30;94830.16;;;23.57;53.60
8703;BME280;9002;42.708;23.186;2023-07-30T03:22:58;94834.13;;;23.65;53.39
8703;BME280;9002;42.708;23.186;2023-07-30T03:25:25;94836.47;;;23.41;53.77
8703;BME280;9002;42.708;23.186;2023-07-30T03:27:51;94830.38;;;23.30;53.69
8703;BME280;9002;42.708;23.186;2023-07-30T03:30:18;94831.44;;;23.45;53.84
8703;BME280;9002;42.708;23.186;2023-07-30T03:32:45;94840.16;;;23.40;53.81
8703;BME280;9002;42.708;23.186;2023-07-30T03:35:11;94831.22;;;23.61;53.73
8703;BME280;9002;42.708;23.186;2023-07-30T03:37:38;94832.53;;;23.64;53.49
8703;BME280;9002;42.708;23.186;2023-07-30T03:40:08;94844.69;;;23.55;53.94
8703;BME280;9002;42.708;23.186;2023-07-30T03:42:34;94830.13;;;23.47;53.84
8703;BME280;9002;42.708;23.186;2023-07-30T03:45:01;94836.72;;;23.70;53.11
8703;BME280;9002;42.708;23.186;2023-07-30T03:47:28;94836.50;;;23.56;52.96
8703;BME280;9002;42.708;23.186;2023-07-30T03:49:55;94837.25;;;23.52;52.67
8703;BME280;9002;42.708;23.186;2023-07-30T03:52:21;94843.53;;;23.15;53.61
8703;BME280;9002;42.708;23.186;2023-07-30T03:54:48;94848.56;;;23.07;53.62
8703;BME280;9002;42.708;23.186;2023-07-30T03:57:16;94850.97;;;23.38;52.93
8703;BME280;9002;42.708;23.186;2023-07-30T03:59:43;94857.28;;;23.27;53.16
8703;BME280;9002;42.708;23.186;2023-07-30T04:02:09;94866.00;;;23.18;53.56
8703;BME280;9002;42.708;23.186;2023-07-30T04:04:40;94861.53;;;23.33;53.00
8703;BME280;9002;42.708;23.186;2023-07-30T04:07:07;94862.06;;;23.30;53.18
8703;BME280;9002;42.708;23.186;2023-07-30T04:09:34;94858.34;;;23.16;53.31
8703;BME280;9002;42.708;23.186;2023-07-30T04:12:01;94857.84;;;23.50;52.64
8703;BME280;9002;42.708;23.186;2023-07-30T04:14:29;94858.66;;;23.45;52.69
8703;BME280;9002;42.708;23.186;2023-07-30T04:16:55;94857.84;;;23.45;52.80
8703;BME280;9002;42.708;23.186;2023-07-30T04:19:22;94859.41;;;23.25;53.26
8703;BME280;9002;42.708;23.186;2023-07-30T04:21:49;94854.91;;;23.26;53.34
8703;BME280;9002;42.708;23.186;2023-07-30T04:24:16;94865.19;;;23.07;54.03
8703;BME280;9002;42.708;23.186;2023-07-30T04:26:42;94857.81;;;23.04;54.36
8703;BME280;9002;42.708;23.186;2023-07-30T04:29:09;94859.41;;;23.25;53.92
8703;BME280;9002;42.708;23.186;2023-07-30T04:31:37;94857.03;;;23.09;54.12
8703;BME280;9002;42.708;23.186;2023-07-30T04:34:04;94868.91;;;23.21;53.83
8703;BME280;9002;42.708;23.186;2023-07-30T04:36:31;94858.88;;;23.18;53.76
8703;BME280;9002;42.708;23.186;2023-07-30T04:38:57;94821.91;;;22.98;53.93
8703;BME280;9002;42.708;23.186;2023-07-30T04:41:24;94871.56;;;23.36;53.88
8703;BME280;9002;42.708;23.186;2023-07-30T04:43:51;94871.59;;;23.47;53.61
8703;BME280;9002;42.708;23.186;2023-07-30T04:46:18;94869.72;;;23.32;53.35
8703;BME280;9002;42.708;23.186;2023-07-30T04:48:46;94873.69;;;23.39;53.54
8703;BME280;9002;42.708;23.186;2023-07-30T04:51:12;94867.91;;;23.53;52.93
8703;BME280;9002;42.708;23.186;2023-07-30T04:53:39;94867.41;;;23.66;52.55
8703;BME280;9002;42.708;23.186;2023-07-30T04:56:06;94871.56;;;23.36;53.24
8703;BME280;9002;42.708;23.186;2023-07-30T04:58:32;94867.88;;;23.37;53.16
8703;BME280;9002;42.708;23.186;2023-07-30T05:00:59;94864.19;;;23.38;53.19
8703;BME280;9002;42.708;23.186;2023-07-30T05:03:26;94867.34;;;23.46;53.49
8703;BME280;9002;42.708;23.186;2023-07-30T05:05:54;94867.94;;;23.58;53.46
8703;BME280;9002;42.708;23.186;2023-07-30T05:08:21;94867.66;;;23.59;53.25
8703;BME280;9002;42.708;23.186;2023-07-30T05:10:48;94865.28;;;23.58;53.35
8703;BME280;9002;42.708;23.186;2023-07-30T05:13:14;94866.06;;;23.84;52.82
8703;BME280;9002;42.708;23.186;2023-07-30T05:15:41;94860.53;;;23.65;52.78
8703;BME280;9002;42.708;23.186;2023-07-30T05:18:08;94840.69;;;23.52;52.99
8703;BME280;9002;42.708;23.186;2023-07-30T05:20:35;94867.66;;;23.75;52.78
8703;BME280;9002;42.708;23.186;2023-07-30T05:23:03;94872.16;;;23.59;52.64
8703;BME280;9002;42.708;23.186;2023-07-30T05:25:30;94848.09;;;23.76;52.10
8703;BME280;9002;42.708;23.186;2023-07-30T05:27:56;94860.78;;;23.89;51.92
8703;BME280;9002;42.708;23.186;2023-07-30T05:30:23;94865.00;;;23.90;51.68
8703;BME280;9002;42.708;23.186;2023-07-30T05:32:50;94856.28;;;23.84;51.84
8703;BME280;9002;42.708;23.186;2023-07-30T05:35:17;94862.88;;;23.92;51.57
8703;BME280;9002;42.708;23.186;2023-07-30T05:37:44;94852.31;;;23.71;52.11
8703;BME280;9002;42.708;23.186;2023-07-30T05:40:12;94865.53;;;23.77;51.97
8703;BME280;9002;42.708;23.186;2023-07-30T05:42:39;94857.09;;;23.64;51.78
8703;BME280;9002;42.708;23.186;2023-07-30T05:45:07;94855.22;;;23.80;51.87
8703;BME280;9002;42.708;23.186;2023-07-30T05:47:34;94874.78;;;24.04;51.18
8703;BME280;9002;42.708;23.186;2023-07-30T05:50:01;94867.09;;;24.03;50.91
8703;BME280;9002;42.708;23.186;2023-07-30T05:52:28;94856.53;;;23.98;51.04
8703;BME280;9002;42.708;23.186;2023-07-30T05:54:55;94870.81;;;23.82;51.68
8703;BME280;9002;42.708;23.186;2023-07-30T05:57:23;94867.91;;;24.09;51.16
8703;BME280;9002;42.708;23.186;2023-07-30T05:59:50;94864.75;;;23.81;51.39
8703;BME280;9002;42.708;23.186;2023-07-30T06:02:16;94865.25;;;23.88;51.79
8703;BME280;9002;42.708;23.186;2023-07-30T06:04:43;94875.56;;;24.05;51.65
8703;BME280;9002;42.708;23.186;2023-07-30T06:07:10;94873.94;;;24.34;50.40
8703;BME280;9002;42.708;23.186;2023-07-30T06:09:37;94867.84;;;24.29;50.66
8703;BME280;9002;42.708;23.186;2023-07-30T06:12:04;94872.28;;;24.59;49.89
8703;BME280;9002;42.708;23.186;2023-07-30T06:14:32;94868.88;;;24.43;49.96
8703;BME280;9002;42.708;23.186;2023-07-30T06:16:59;94876.28;;;24.51;49.57
8703;BME280;9002;42.708;23.186;2023-07-30T06:19:26;94869.41;;;24.50;49.99
8703;BME280;9002;42.708;23.186;2023-07-30T06:21:52;94866.22;;;24.53;50.08
8703;BME280;9002;42.708;23.186;2023-07-30T06:24:19;94871.69;;;24.77;49.57
8703;BME280;9002;42.708;23.186;2023-07-30T06:26:46;94869.31;;;24.76;49.39
8703;BME280;9002;42.708;23.186;2023-07-30T06:29:13;94871.72;;;24.67;49.36
8703;BME280;9002;42.708;23.186;2023-07-30T06:31:41;94875.66;;;24.75;49.74
8703;BME280;9002;42.708;23.186;2023-07-30T06:34:07;94872.53;;;24.62;49.90
8703;BME280;9002;42.708;23.186;2023-07-30T06:36:35;94872.78;;;24.71;49.63
8703;BME280;9002;42.708;23.186;2023-07-30T06:39:02;94864.00;;;24.81;49.80
8703;BME280;9002;42.708;23.186;2023-07-30T06:41:29;94864.78;;;24.81;50.07
8703;BME280;9002;42.708;23.186;2023-07-30T06:43:55;94855.16;;;24.95;49.90
8703;BME280;9002;42.708;23.186;2023-07-30T06:46:22;94847.22;;;25.00;49.99
8703;BME280;9002;42.708;23.186;2023-07-30T06:48:50;94846.38;;;25.10;49.43
8703;BME280;9002;42.708;23.186;2023-07-30T06:51:19;94837.56;;;25.25;49.36
8703;BME280;9002;42.708;23.186;2023-07-30T06:53:46;94833.47;;;24.98;49.15
8703;BME280;9002;42.708;23.186;2023-07-30T06:56:12;94839.28;;;25.00;48.91
8703;BME280;9002;42.708;23.186;2023-07-30T06:58:39;94836.88;;;25.04;49.47
8703;BME280;9002;42.708;23.186;2023-07-30T07:01:06;94833.41;;;25.09;49.25
8703;BME280;9002;42.708;23.186;2023-07-30T07:03:33;94839.44;;;25.19;49.06
8703;BME280;9002;42.708;23.186;2023-07-30T07:06:01;94829.66;;;25.20;48.64
8703;BME280;9002;42.708;23.186;2023-07-30T07:08:27;94832.78;;;25.27;47.97
8703;BME280;9002;42.708;23.186;2023-07-30T07:10:54;94814.47;;;25.30;48.00
8703;BME280;9002;42.708;23.186;2023-07-30T07:13:21;94833.69;;;25.07;49.27
8703;BME280;9002;42.708;23.186;2023-07-30T07:15:48;94793.19;;;25.07;48.78
8703;BME280;9002;42.708;23.186;2023-07-30T07:18:14;94819.13;;;25.44;48.39
8703;BME280;9002;42.708;23.186;2023-07-30T07:20:41;94812.72;;;25.50;47.46
8703;BME280;9002;42.708;23.186;2023-07-30T07:23:09;94797.47;;;25.37;47.59
8703;BME280;9002;42.708;23.186;2023-07-30T07:25:36;94775.25;;;25.32;47.61
8703;BME280;9002;42.708;23.186;2023-07-30T07:28:04;94816.31;;;25.69;47.50
8703;BME280;9002;42.708;23.186;2023-07-30T07:30:30;94803.53;;;25.76;47.10
8703;BME280;9002;42.708;23.186;2023-07-30T07:32:57;94806.13;;;25.81;46.51
8703;BME280;9002;42.708;23.186;2023-07-30T07:35:24;94807.34;;;25.94;46.34
8703;BME280;9002;42.708;23.186;2023-07-30T07:37:51;94803.56;;;25.71;47.05
8703;BME280;9002;42.708;23.186;2023-07-30T07:40:19;94787.63;;;25.76;45.91
8703;BME280;9002;42.708;23.186;2023-07-30T07:42:45;94802.19;;;26.03;46.15
8703;BME280;9002;42.708;23.186;2023-07-30T07:45:12;94802.78;;;25.99;46.23
8703;BME280;9002;42.708;23.186;2023-07-30T07:47:39;94799.53;;;26.03;45.67
8703;BME280;9002;42.708;23.186;2023-07-30T07:50:06;94795.72;;;26.14;45.30
8703;BME280;9002;42.708;23.186;2023-07-30T07:52:33;94800.44;;;26.17;45.12
8703;BME280;9002;42.708;23.186;2023-07-30T07:55:00;94794.53;;;26.25;44.25
8703;BME280;9002;42.708;23.186;2023-07-30T07:57:29;94794.34;;;26.45;43.45
8703;BME280;9002;42.708;23.186;2023-07-30T07:59:56;94793.41;;;26.55;43.68
8703;BME280;9002;42.708;23.186;2023-07-30T08:02:23;94772.44;;;26.35;43.60
8703;BME280;9002;42.708;23.186;2023-07-30T08:04:50;94785.09;;;26.61;43.59
8703;BME280;9002;42.708;23.186;2023-07-30T08:07:16;94788.91;;;26.55;43.89
8703;BME280;9002;42.708;23.186;2023-07-30T08:09:43;94792.53;;;26.59;42.63
8703;BME280;9002;42.708;23.186;2023-07-30T08:12:10;94786.59;;;26.49;42.42
8703;BME280;9002;42.708;23.186;2023-07-30T08:14:39;94788.25;;;26.63;42.42
8703;BME280;9002;42.708;23.186;2023-07-30T08:17:06;94773.81;;;26.51;42.02
8703;BME280;9002;42.708;23.186;2023-07-30T08:19:32;94775.84;;;26.78;42.40
8703;BME280;9002;42.708;23.186;2023-07-30T08:21:59;94762.13;;;26.71;42.42
8703;BME280;9002;42.708;23.186;2023-07-30T08:24:26;94775.34;;;26.76;42.65
8703;BME280;9002;42.708;23.186;2023-07-30T08:26:53;94770.03;;;26.76;42.67
8703;BME280;9002;42.708;23.186;2023-07-30T08:29:19;94768.41;;;26.99;42.33
8703;BME280;9002;42.708;23.186;2023-07-30T08:31:47;94765.53;;;27.14;41.59
8703;BME280;9002;42.708;23.186;2023-07-30T08:34:14;94764.59;;;26.86;41.13
8703;BME280;9002;42.708;23.186;2023-07-30T08:36:41;94767.28;;;27.05;41.81
8703;BME280;9002;42.708;23.186;2023-07-30T08:39:07;94760.75;;;27.29;41.29
8703;BME280;9002;42.708;23.186;2023-07-30T08:41:35;94750.19;;;27.43;40.94
8703;BME280;9002;42.708;23.186;2023-07-30T08:44:02;94755.03;;;27.55;40.94
8703;BME280;9002;42.708;23.186;2023-07-30T08:46:29;94751.09;;;27.52;40.32
8703;BME280;9002;42.708;23.186;2023-07-30T08:48:57;94748.03;;;27.45;40.84
8703;BME280;9002;42.708;23.186;2023-07-30T08:51:26;94737.09;;;27.47;40.55
8703;BME280;9002;42.708;23.186;2023-07-30T08:53:52;94750.50;;;27.55;40.27
8703;BME280;9002;42.708;23.186;2023-07-30T08:56:20;94750.75;;;27.59;40.60
8703;BME280;9002;42.708;23.186;2023-07-30T08:58:48;94735.84;;;27.58;40.89
8703;BME280;9002;42.708;23.186;2023-07-30T09:01:19;94735.00;;;27.63;41.04
8703;BME280;9002;42.708;23.186;2023-07-30T09:03:48;94741.31;;;27.80;40.28
8703;BME280;9002;42.708;23.186;2023-07-30T09:06:18;94740.25;;;28.09;39.17
8703;BME280;9002;42.708;23.186;2023-07-30T09:08:44;94742.50;;;28.02;38.90
8703;BME280;9002;42.708;23.186;2023-07-30T09:11:11;94737.38;;;28.05;38.62
8703;BME280;9002;42.708;23.186;2023-07-30T09:13:39;94728.06;;;28.21;37.85
8703;BME280;9002;42.708;23.186;2023-07-30T09:16:09;94730.50;;;28.18;38.18
8703;BME280;9002;42.708;23.186;2023-07-30T09:18:40;94717.38;;;27.80;38.87
8703;BME280;9002;42.708;23.186;2023-07-30T09:21:08;94727.16;;;28.12;38.84
8703;BME280;9002;42.708;23.186;2023-07-30T09:23:40;94735.16;;;28.26;37.94
8703;BME280;9002;42.708;23.186;2023-07-30T09:26:07;94731.13;;;28.29;37.20
8703;BME280;9002;42.708;23.186;2023-07-30T09:28:34;94732.06;;;28.33;36.17
8703;BME280;9002;42.708;23.186;2023-07-30T09:31:02;94719.34;;;28.43;35.21
8703;BME280;9002;42.708;23.186;2023-07-30T09:33:29;94716.72;;;28.30;34.96
8703;BME280;9002;42.708;23.186;2023-07-30T09:35:55;94717.69;;;28.34;35.17
8703;BME280;9002;42.708;23.186;2023-07-30T09:38:22;94711.53;;;28.47;35.83
8703;BME280;9002;42.708;23.186;2023-07-30T09:40:50;94699.91;;;28.56;35.93
8703;BME280;9002;42.708;23.186;2023-07-30T09:43:18;94685.69;;;28.61;35.86
8703;BME280;9002;42.708;23.186;2023-07-30T09:45:45;94699.16;;;28.78;35.16
8703;BME280;9002;42.708;23.186;2023-07-30T09:48:13;94698.88;;;29.02;35.86
8703;BME280;9002;42.708;23.186;2023-07-30T09:50:41;94690.03;;;29.15;34.57
8703;BME280;9002;42.708;23.186;2023-07-30T09:53:10;94696.09;;;29.07;34.87
8703;BME280;9002;42.708;23.186;2023-07-30T09:55:39;94693.16;;;29.40;34.66
8703;BME280;9002;42.708;23.186;2023-07-30T09:58:07;94690.72;;;29.43;34.26
8703;BME280;9002;42.708;23.186;2023-07-30T10:00:36;94698.22;;;29.41;33.76
8703;BME280;9002;42.708;23.186;2023-07-30T10:03:04;94688.69;;;29.27;33.57
8703;BME280;9002;42.708;23.186;2023-07-30T10:05:33;94685.38;;;28.99;33.62
8703;BME280;9002;42.708;23.186;2023-07-30T10:08:05;94678.81;;;29.05;33.21
8703;BME280;9002;42.708;23.186;2023-07-30T10:10:33;94672.66;;;29.18;33.45
8703;BME280;9002;42.708;23.186;2023-07-30T10:13:03;94667.25;;;29.09;33.61
8703;BME280;9002;42.708;23.186;2023-07-30T10:15:35;94669.72;;;29.28;33.94
8703;BME280;9002;42.708;23.186;2023-07-30T10:18:02;94653.16;;;29.09;34.20
8703;BME280;9002;42.708;23.186;2023-07-30T10:20:30;94653.91;;;29.32;33.22
8703;BME280;9002;42.708;23.186;2023-07-30T10:22:57;94662.34;;;29.96;33.00
8703;BME280;9002;42.708;23.186;2023-07-30T10:25:28;94651.69;;;30.61;32.20
8703;BME280;9002;42.708;23.186;2023-07-30T10:27:55;94650.47;;;31.40;31.57
8703;BME280;9002;42.708;23.186;2023-07-30T10:30:30;94651.09;;;31.37;30.88
8703;BME280;9002;42.708;23.186;2023-07-30T10:33:01;94645.78;;;31.28;31.39
8703;BME280;9002;42.708;23.186;2023-07-30T10:35:38;94642.31;;;31.28;30.81
8703;BME280;9002;42.708;23.186;2023-07-30T10:38:20;94631.47;;;31.33;31.14
8703;BME280;9002;42.708;23.186;2023-07-30T10:41:00;94633.81;;;31.34;31.00
8703;BME280;9002;42.708;23.186;2023-07-30T10:43:28;94629.22;;;31.43;31.34
8703;BME280;9002;42.708;23.186;2023-07-30T10:45:55;94620.69;;;31.50;31.62
8703;BME280;9002;42.708;23.186;2023-07-30T10:48:31;94626.66;;;31.56;31.05
8703;BME280;9002;42.708;23.186;2023-07-30T10:51:00;94607.03;;;31.43;30.91
8703;BME280;9002;42.708;23.186;2023-07-30T10:53:27;94607.16;;;31.55;30.80
8703;BME280;9002;42.708;23.186;2023-07-30T10:55:54;94608.88;;;31.68;30.56
8703;BME280;9002;42.708;23.186;2023-07-30T10:58:25;94612.41;;;31.81;30.03
8703;BME280;9002;42.708;23.186;2023-07-30T11:00:52;94580.69;;;31.71;30.59
8703;BME280;9002;42.708;23.186;2023-07-30T11:03:19;94603.50;;;31.98;30.25
8703;BME280;9002;42.708;23.186;2023-07-30T11:05:48;94577.09;;;31.88;30.61
8703;BME280;9002;42.708;23.186;2023-07-30T11:08:15;94589.34;;;32.18;29.93
8703;BME280;9002;42.708;23.186;2023-07-30T11:10:43;94548.47;;;32.09;30.14
8703;BME280;9002;42.708;23.186;2023-07-30T11:13:10;94581.06;;;32.53;29.62
8703;BME280;9002;42.708;23.186;2023-07-30T11:15:41;94584.25;;;32.46;30.14
8703;BME280;9002;42.708;23.186;2023-07-30T11:18:09;94571.78;;;32.50;29.42
8703;BME280;9002;42.708;23.186;2023-07-30T11:20:36;94566.47;;;32.29;28.82
8703;BME280;9002;42.708;23.186;2023-07-30T11:23:18;94565.25;;;32.18;29.60
8703;BME280;9002;42.708;23.186;2023-07-30T11:25:46;94567.25;;;32.30;29.83
8703;BME280;9002;42.708;23.186;2023-07-30T11:28:15;94553.09;;;32.62;29.57
8703;BME280;9002;42.708;23.186;2023-07-30T11:30:42;94568.53;;;33.10;28.38
8703;BME280;9002;42.708;23.186;2023-07-30T11:33:15;94567.19;;;33.04;28.48
8703;BME280;9002;42.708;23.186;2023-07-30T11:35:42;94564.50;;;33.04;28.27
8703;BME280;9002;42.708;23.186;2023-07-30T11:38:09;94560.41;;;33.19;28.31
8703;BME280;9002;42.708;23.186;2023-07-30T11:40:38;94560.34;;;33.40;28.17
8703;BME280;9002;42.708;23.186;2023-07-30T11:43:05;94553.50;;;33.55;27.96
8703;BME280;9002;42.708;23.186;2023-07-30T11:45:31;94543.44;;;33.64;27.62
8703;BME280;9002;42.708;23.186;2023-07-30T11:48:06;94546.22;;;33.67;27.50
8703;BME280;9002;42.708;23.186;2023-07-30T11:50:45;94536.94;;;33.77;27.35
8703;BME280;9002;42.708;23.186;2023-07-30T11:53:13;94522.63;;;33.97;27.05
8703;BME280;9002;42.708;23.186;2023-07-30T11:55:42;94517.84;;;33.54;27.27
8703;BME280;9002;42.708;23.186;2023-07-30T11:58:10;94526.66;;;33.55;27.48
8703;BME280;9002;42.708;23.186;2023-07-30T12:00:38;94508.69;;;33.79;27.28
8703;BME280;9002;42.708;23.186;2023-07-30T12:03:06;94505.69;;;34.09;26.90
8703;BME280;9002;42.708;23.186;2023-07-30T12:05:33;94504.81;;;34.05;26.79
8703;BME280;9002;42.708;23.186;2023-07-30T12:08:01;94503.31;;;34.20;26.48
8703;BME280;9002;42.708;23.186;2023-07-30T12:10:42;94513.72;;;34.09;26.94
8703;BME280;9002;42.708;23.186;2023-07-30T12:13:15;94509.56;;;34.24;26.60
8703;BME280;9002;42.708;23.186;2023-07-30T12:15:43;94468.91;;;34.25;26.63
8703;BME280;9002;42.708;23.186;2023-07-30T12:18:10;94485.41;;;34.52;26.54
8703;BME280;9002;42.708;23.186;2023-07-30T12:20:37;94483.34;;;34.61;26.46
8703;BME280;9002;42.708;23.186;2023-07-30T12:23:04;94443.84;;;34.33;26.46
8703;BME280;9002;42.708;23.186;2023-07-30T12:25:31;94452.75;;;34.65;25.73
8703;BME280;9002;42.708;23.186;2023-07-30T12:27:59;94466.31;;;35.00;25.73
8703;BME280;9002;42.708;23.186;2023-07-30T12:30:26;94467.50;;;35.34;25.62
8703;BME280;9002;42.708;23.186;2023-07-30T12:32:53;94478.63;;;35.33;24.92
8703;BME280;9002;42.708;23.186;2023-07-30T12:35:20;94463.78;;;35.39;25.40
8703;BME280;9002;42.708;23.186;2023-07-30T12:37:47;94466.81;;;35.37;24.87
8703;BME280;9002;42.708;23.186;2023-07-30T12:40:14;94459.03;;;35.01;25.68
8703;BME280;9002;42.708;23.186;2023-07-30T12:42:40;94458.38;;;34.60;26.58
8703;BME280;9002;42.708;23.186;2023-07-30T12:45:09;94460.06;;;34.25;26.53
8703;BME280;9002;42.708;23.186;2023-07-30T12:47:36;94452.91;;;34.29;26.94
8703;BME280;9002;42.708;23.186;2023-07-30T12:50:04;94430.69;;;34.44;26.38
8703;BME280;9002;42.708;23.186;2023-07-30T12:52:32;94439.91;;;34.74;26.29
8703;BME280;9002;42.708;23.186;2023-07-30T12:54:59;94436.63;;;35.13;25.73
8703;BME280;9002;42.708;23.186;2023-07-30T12:57:25;94437.22;;;35.72;25.63
8703;BME280;9002;42.708;23.186;2023-07-30T12:59:52;94429.50;;;35.90;24.87
8703;BME280;9002;42.708;23.186;2023-07-30T13:02:20;94441.97;;;35.44;25.45
8703;BME280;9002;42.708;23.186;2023-07-30T13:04:47;94432.78;;;35.45;25.27
8703;BME280;9002;42.708;23.186;2023-07-30T13:07:14;94442.59;;;34.74;26.17
8703;BME280;9002;42.708;23.186;2023-07-30T13:09:40;94437.38;;;34.50;26.08
8703;BME280;9002;42.708;23.186;2023-07-30T13:12:07;94425.59;;;34.55;25.98